createdAt,value
2018-11-28T00:01:48.370Z,34.73
2018-11-28T00:06:50.878Z,39.80
2018-11-28T00:11:53.377Z,33.83
2018-11-28T00:16:55.913Z,34.60
2018-11-28T00:21:58.557Z,31.80
2018-11-28T00:27:01.113Z,32.47
2018-11-28T00:32:03.608Z,29.30
2018-11-28T00:37:06.171Z,27.80
2018-11-28T00:42:08.718Z,29.07
2018-11-28T00:47:11.362Z,26.03
2018-11-28T00:52:13.895Z,35.30
2018-11-28T00:57:16.433Z,26.87
2018-11-28T01:02:18.962Z,30.80
2018-11-28T01:07:21.478Z,34.20
2018-11-28T01:12:24.004Z,27.57
2018-11-28T01:17:26.542Z,32.10
2018-11-28T01:22:29.080Z,29.50
2018-11-28T01:27:31.626Z,28.23
2018-11-28T01:32:34.142Z,26.53
2018-11-28T01:37:37.017Z,30.63
2018-11-28T01:42:40.234Z,27.23
2018-11-28T01:47:42.961Z,25.17
2018-11-28T01:52:45.531Z,23.97
2018-11-28T01:57:48.077Z,25.47
2018-11-28T02:02:52.179Z,24.37
2018-11-28T02:07:54.706Z,23.07
2018-11-28T02:12:57.211Z,23.73
2018-11-28T02:17:59.742Z,32.33
2018-11-28T02:23:02.278Z,21.57
2018-11-28T02:28:05.079Z,27.83
2018-11-28T02:33:07.505Z,22.77
2018-11-28T02:38:10.006Z,25.77
2018-11-28T02:43:12.596Z,26.30
2018-11-28T02:48:15.114Z,23.00
2018-11-28T02:53:17.635Z,27.80
2018-11-28T02:58:20.167Z,24.30
2018-11-28T03:03:22.724Z,22.53
2018-11-28T03:08:25.258Z,24.07
2018-11-28T03:13:27.810Z,26.20
2018-11-28T03:18:30.359Z,24.70
2018-11-28T03:23:32.786Z,24.23
2018-11-28T03:28:35.298Z,20.20
2018-11-28T03:33:37.838Z,19.73
2018-11-28T03:38:40.388Z,20.37
2018-11-28T03:43:42.934Z,19.60
2018-11-28T03:48:45.493Z,19.77
2018-11-28T03:53:48.039Z,16.43
2018-11-28T03:58:50.583Z,18.83
2018-11-28T04:03:53.122Z,17.80
2018-11-28T04:08:55.638Z,20.57
2018-11-28T04:13:58.189Z,20.73
2018-11-28T04:19:03.673Z,16.50
2018-11-28T04:24:06.226Z,19.33
2018-11-28T04:29:08.747Z,25.57
2018-11-28T04:34:11.292Z,23.43
2018-11-28T04:39:13.802Z,19.67
2018-11-28T04:44:16.661Z,27.83
2018-11-28T04:49:19.191Z,26.73
2018-11-28T04:54:21.701Z,32.57
2018-11-28T04:59:24.221Z,31.33
2018-11-28T05:04:26.755Z,19.87
2018-11-28T05:09:29.358Z,23.47
2018-11-28T05:14:31.879Z,22.10
2018-11-28T05:19:34.437Z,18.87
2018-11-28T05:24:37.002Z,23.17
2018-11-28T05:29:39.527Z,20.30
2018-11-28T05:34:42.138Z,20.70
2018-11-28T05:39:44.716Z,19.73
2018-11-28T05:44:47.242Z,25.47
2018-11-28T05:49:50.130Z,20.43
2018-11-28T05:54:52.719Z,25.73
2018-11-28T05:59:55.305Z,23.10
2018-11-28T06:04:57.851Z,28.67
2018-11-28T06:10:00.499Z,30.03
2018-11-28T06:15:03.248Z,27.45
2018-11-28T06:20:10.786Z,23.90
2018-11-28T06:25:16.175Z,21.73
2018-11-28T06:30:18.318Z,25.10
2018-11-28T06:35:20.878Z,23.10
2018-11-28T06:40:24.182Z,22.97
2018-11-28T06:45:25.959Z,24.33
2018-11-28T06:50:28.498Z,28.07
2018-11-28T06:55:31.086Z,28.53
2018-11-28T07:00:33.617Z,28.50
2018-11-28T07:05:36.219Z,31.07
2018-11-28T07:10:38.751Z,33.77
2018-11-28T07:15:41.298Z,33.40
2018-11-28T07:20:43.830Z,36.60
2018-11-28T07:25:46.386Z,34.70
2018-11-28T07:30:48.956Z,33.73
2018-11-28T07:35:51.502Z,32.23
2018-11-28T07:40:54.023Z,32.93
2018-11-28T07:45:56.586Z,32.80
2018-11-28T07:50:59.276Z,31.47
2018-11-28T07:56:01.835Z,30.57
2018-11-28T08:01:04.511Z,31.43
2018-11-28T08:06:07.082Z,30.63
2018-11-28T08:11:09.615Z,30.57
2018-11-28T08:16:12.182Z,30.13
2018-11-28T08:21:14.747Z,30.87
2018-11-28T08:26:17.290Z,23.07
2018-11-28T08:31:19.920Z,18.13
2018-11-28T08:36:22.458Z,19.40
2018-11-28T08:41:25.015Z,17.20
2018-11-28T08:46:27.543Z,21.53
2018-11-28T08:51:30.124Z,19.87
2018-11-28T08:56:32.679Z,21.20
2018-11-28T09:01:35.303Z,20.57
2018-11-28T09:06:37.831Z,22.43
2018-11-28T09:11:40.355Z,21.83
2018-11-28T09:16:42.899Z,20.47
2018-11-28T09:21:45.425Z,18.27
2018-11-28T09:26:47.962Z,19.87
2018-11-28T09:31:50.474Z,20.53
2018-11-28T09:36:53.027Z,18.33
2018-11-28T09:41:55.561Z,16.00
2018-11-28T09:46:58.070Z,17.90
2018-11-28T09:52:00.639Z,19.03
2018-11-28T09:57:03.212Z,18.70
2018-11-28T10:02:05.841Z,17.97
2018-11-28T10:07:08.494Z,18.30
2018-11-28T10:12:11.037Z,20.67
2018-11-28T10:17:13.595Z,15.87
2018-11-28T10:22:16.138Z,15.03
2018-11-28T10:27:18.670Z,14.20
2018-11-28T10:32:21.222Z,15.17
2018-11-28T10:37:23.758Z,13.23
2018-11-28T10:42:26.298Z,16.27
2018-11-28T10:47:28.835Z,14.63
2018-11-28T10:52:31.402Z,15.03
2018-11-28T10:57:33.965Z,15.37
2018-11-28T11:03:42.599Z,12.87
2018-11-28T11:08:50.751Z,12.50
2018-11-28T11:13:59.041Z,13.47
2018-11-28T11:19:01.703Z,10.77
2018-11-28T11:24:04.476Z,16.47
2018-11-28T11:29:07.089Z,12.30
2018-11-28T11:34:09.628Z,15.47
2018-11-28T11:39:12.170Z,12.23
2018-11-28T11:44:14.720Z,11.73
2018-11-28T11:49:17.286Z,15.00
2018-11-28T11:54:19.820Z,11.03
2018-11-28T11:59:22.386Z,11.93
2018-11-28T12:04:24.905Z,12.23
2018-11-28T12:09:27.466Z,17.90
2018-11-28T12:14:30.013Z,14.20
2018-11-28T12:19:32.585Z,13.40
2018-11-28T12:24:35.139Z,13.43
2018-11-28T12:29:37.689Z,15.47
2018-11-28T12:34:40.223Z,12.40
2018-11-28T12:39:42.825Z,11.83
2018-11-28T12:44:45.390Z,12.57
2018-11-28T12:49:47.954Z,10.50
2018-11-28T12:54:50.522Z,11.20
2018-11-28T12:59:53.086Z,11.50
2018-11-28T13:04:59.844Z,11.63
2018-11-28T13:09:58.255Z,12.20
2018-11-28T13:15:00.793Z,12.43
2018-11-28T13:20:04.552Z,11.60
2018-11-28T13:25:09.126Z,12.03
2018-11-28T13:30:19.346Z,14.53
2018-11-28T13:35:22.789Z,12.87
2018-11-28T13:40:25.331Z,14.10
2018-11-28T13:45:29.406Z,13.90
2018-11-28T13:50:31.953Z,14.80
2018-11-28T13:55:40.352Z,14.57
2018-11-28T14:00:41.403Z,14.87
2018-11-28T14:05:43.996Z,15.83
2018-11-28T14:10:46.861Z,15.03
2018-11-28T14:15:49.475Z,16.10
2018-11-28T14:20:52.107Z,13.93
2018-11-28T14:25:54.643Z,13.17
2018-11-28T14:30:57.210Z,15.13
2018-11-28T14:35:59.862Z,13.93
2018-11-28T14:41:02.427Z,15.17
2018-11-28T14:46:05.042Z,16.43
2018-11-28T14:51:07.638Z,18.27
2018-11-28T14:56:10.204Z,16.20
2018-11-28T15:01:12.767Z,16.60
2018-11-28T15:06:30.631Z,14.20
2018-11-28T15:11:33.219Z,19.10
2018-11-28T15:16:35.779Z,21.50
2018-11-28T15:21:38.341Z,20.97
2018-11-28T15:26:40.934Z,16.07
2018-11-28T15:31:43.562Z,16.73
2018-11-28T15:36:46.095Z,17.37
2018-11-28T15:41:48.621Z,18.27
2018-11-28T15:46:51.188Z,16.77
2018-11-28T15:51:53.724Z,19.10
2018-11-28T15:56:56.271Z,20.57
2018-11-28T16:01:58.844Z,22.27
2018-11-28T16:07:02.074Z,28.07
2018-11-28T16:12:04.658Z,18.50
2018-11-28T16:17:07.266Z,23.20
2018-11-28T16:22:09.837Z,17.87
2018-11-28T16:27:12.434Z,23.47
2018-11-28T16:32:15.073Z,28.23
2018-11-28T16:37:17.676Z,22.90
2018-11-28T16:42:20.303Z,19.30
2018-11-28T16:47:22.829Z,23.77
2018-11-28T16:52:25.655Z,21.60
2018-11-28T16:57:28.192Z,18.20
2018-11-28T17:02:30.774Z,25.60
2018-11-28T17:07:33.306Z,19.87
2018-11-28T17:12:35.874Z,19.80
2018-11-28T17:17:39.047Z,17.47
2018-11-28T17:22:41.742Z,18.03
2018-11-28T17:27:44.296Z,18.13
2018-11-28T17:32:46.874Z,17.13
2018-11-28T17:37:49.668Z,17.37
2018-11-28T17:42:54.362Z,16.00
2018-11-28T17:47:56.919Z,16.43
2018-11-28T17:53:02.203Z,17.43
2018-11-28T17:58:05.287Z,16.77
2018-11-28T18:03:07.851Z,15.73
2018-11-28T18:08:10.591Z,15.63
2018-11-28T18:13:14.130Z,17.23
2018-11-28T18:18:18.874Z,16.73
2018-11-28T18:23:21.468Z,15.13
2018-11-28T18:28:24.086Z,15.60
2018-11-28T18:33:26.683Z,14.73
2018-11-28T18:38:29.294Z,17.57
2018-11-28T18:43:31.890Z,16.13
2018-11-28T18:48:34.495Z,13.73
2018-11-28T18:53:37.832Z,15.10
2018-11-28T18:58:40.411Z,17.00
2018-11-28T19:03:42.975Z,18.17
2018-11-28T19:08:45.612Z,15.60
2018-11-28T19:13:49.004Z,16.43
2018-11-28T19:18:51.509Z,16.67
2018-11-28T19:23:54.001Z,16.30
2018-11-28T19:28:56.561Z,15.67
2018-11-28T19:33:59.172Z,14.47
2018-11-28T19:39:01.903Z,15.90
2018-11-28T19:44:05.303Z,13.57
2018-11-28T19:49:07.894Z,13.33
2018-11-28T19:54:10.454Z,12.83
2018-11-28T19:59:13.059Z,12.20
2018-11-28T20:04:16.463Z,12.80
2018-11-28T20:09:20.953Z,11.63
2018-11-28T20:14:23.521Z,11.57
2018-11-28T20:19:26.099Z,11.13
2018-11-28T20:24:28.709Z,12.03
2018-11-28T20:29:31.307Z,10.70
2018-11-28T20:34:33.880Z,10.77
2018-11-28T20:39:36.514Z,11.50
2018-11-28T20:44:39.096Z,13.20
2018-11-28T20:49:41.698Z,11.13
2018-11-28T20:54:44.297Z,9.87
2018-11-28T20:59:46.915Z,13.17
2018-11-28T21:04:49.583Z,11.53
2018-11-28T21:09:54.003Z,11.77
2018-11-28T21:14:56.566Z,11.03
2018-11-28T21:19:59.296Z,9.20
2018-11-28T21:25:01.990Z,11.27
2018-11-28T21:30:10.379Z,10.37
2018-11-28T21:35:15.198Z,11.50
2018-11-28T21:40:17.786Z,11.40
2018-11-28T21:45:21.183Z,11.83
2018-11-28T21:50:23.722Z,12.23
2018-11-28T21:55:26.267Z,11.87
2018-11-28T22:00:28.834Z,11.33
2018-11-28T22:05:31.386Z,11.23
2018-11-28T22:10:33.950Z,9.87
2018-11-28T22:15:36.526Z,11.37
2018-11-28T22:20:39.079Z,13.20
2018-11-28T22:25:41.609Z,13.23
2018-11-28T22:30:44.171Z,11.40
2018-11-28T22:35:46.713Z,11.33
2018-11-28T22:40:49.326Z,11.30
2018-11-28T22:45:51.838Z,9.57
2018-11-28T22:50:54.372Z,10.37
2018-11-28T22:55:56.945Z,11.17
2018-11-28T23:01:05.133Z,11.30
2018-11-28T23:06:07.674Z,11.77
2018-11-28T23:11:10.213Z,11.00
2018-11-28T23:16:12.758Z,12.37
2018-11-28T23:21:15.320Z,10.33
2018-11-28T23:26:17.941Z,11.30
2018-11-28T23:31:20.463Z,9.50
2018-11-28T23:36:23.006Z,9.83
2018-11-28T23:41:25.561Z,8.03
2018-11-28T23:46:28.098Z,9.87
2018-11-28T23:51:30.619Z,9.47
2018-11-28T23:56:33.158Z,9.70
